Time;durP1;ratioP1;P1;durP2;ratioP2;P2;SDS_P1;SDS_P2;PMS_P1;PMS_P2;Temp;Humidity;BMP_temperature;BMP_pressure;BME280_temperature;BME280_humidity;BME280_pressure;Samples;Min_cycle;Max_cycle;Signal;HPM_P1;HPM_P2
2024/02/26 00:00:19;;;;;;;19.63;8.57;;;;;;;-2.01;100.00;96998.16;6102154;19;20024;-71
2024/02/26 00:02:19;;;;;;;16.92;8.18;;;;;;;-2.03;100.00;97000.44;6103243;19;19999;-71
2024/02/26 00:04:21;;;;;;;17.27;7.78;;;;;;;-2.03;100.00;97000.44;6102168;19;20384;-71
2024/02/26 00:06:21;;;;;;;16.55;8.27;;;;;;;-2.03;100.00;97003.13;6102836;19;20528;-71
2024/02/26 00:08:22;;;;;;;12.98;7.70;;;;;;;-2.06;100.00;96995.69;6103067;19;20002;-71
2024/02/26 00:10:24;;;;;;;12.68;7.40;;;;;;;-2.09;100.00;96990.09;6102054;19;20103;-71
2024/02/26 00:12:24;;;;;;;16.45;6.40;;;;;;;-2.13;100.00;96987.28;6101841;19;20006;-71
2024/02/26 00:14:24;;;;;;;12.02;6.63;;;;;;;-2.18;100.00;96981.25;6102286;19;20935;-70
2024/02/26 00:16:25;;;;;;;11.35;5.88;;;;;;;-2.22;100.00;96977.66;6110555;19;20490;-71
2024/02/26 00:18:25;;;;;;;10.10;5.38;;;;;;;-2.23;100.00;96973.31;6109742;19;20007;-71
2024/02/26 00:20:26;;;;;;;9.10;5.47;;;;;;;-2.25;100.00;96973.66;6109082;19;20018;-71
2024/02/26 00:22:26;;;;;;;9.35;5.20;;;;;;;-2.25;100.00;96968.25;6109361;19;20006;-71
2024/02/26 00:24:26;;;;;;;10.43;5.63;;;;;;;-2.24;100.00;96974.44;6109496;19;20010;-71
2024/02/26 00:26:27;;;;;;;10.13;4.85;;;;;;;-2.23;100.00;96971.44;6108719;19;20103;-70
2024/02/26 00:28:29;;;;;;;9.45;5.28;;;;;;;-2.26;100.00;96972.88;6109660;19;20358;-71
2024/02/26 00:30:29;;;;;;;6.88;4.45;;;;;;;-2.27;100.00;96962.38;6107726;19;20371;-71
2024/02/26 00:32:29;;;;;;;9.43;4.97;;;;;;;-2.24;100.00;96967.13;6109270;19;20007;-71
2024/02/26 00:34:30;;;;;;;10.85;5.22;;;;;;;-2.19;100.00;96961.50;6109203;19;20019;-71
2024/02/26 00:36:31;;;;;;;6.20;4.43;;;;;;;-2.19;100.00;96968.84;6110181;19;20365;-71
2024/02/26 00:38:31;;;;;;;10.25;5.15;;;;;;;-2.19;100.00;96961.50;6108472;19;20007;-71
2024/02/26 00:40:32;;;;;;;8.73;4.65;;;;;;;-2.18;100.00;96959.59;6108569;19;20011;-71
2024/02/26 00:42:32;;;;;;;8.25;5.00;;;;;;;-2.26;100.00;96951.19;6107835;19;20010;-71
2024/02/26 00:44:33;;;;;;;6.60;4.25;;;;;;;-2.28;100.00;96958.88;6111136;19;20025;-71
2024/02/26 00:46:33;;;;;;;10.13;5.05;;;;;;;-2.33;100.00;96956.34;6110030;19;20030;-71
2024/02/26 00:48:33;;;;;;;8.27;5.07;;;;;;;-2.34;100.00;96962.09;6109755;19;20011;-71
2024/02/26 00:50:34;;;;;;;10.63;5.47;;;;;;;-2.37;100.00;96950.03;6108281;19;20733;-71
2024/02/26 00:52:35;;;;;;;9.00;5.30;;;;;;;-2.37;100.00;96955.44;6110274;19;20041;-71
2024/02/26 00:54:35;;;;;;;8.23;5.30;;;;;;;-2.40;100.00;96956.13;6108944;19;20013;-70
2024/02/26 00:56:36;;;;;;;7.82;5.22;;;;;;;-2.43;100.00;96961.38;6109927;19;20282;-71
2024/02/26 00:58:36;;;;;;;6.55;4.45;;;;;;;-2.43;100.00;96966.78;6109147;19;20014;-71
2024/02/26 01:00:37;;;;;;;8.25;4.65;;;;;;;-2.44;100.00;96965.22;6107944;19;20514;-71
2024/02/26 01:02:38;;;;;;;9.88;4.95;;;;;;;-2.41;100.00;96964.53;6109205;19;20053;-70
2024/02/26 01:04:38;;;;;;;7.55;4.45;;;;;;;-2.31;100.00;96964.16;6109386;19;20082;-70
2024/02/26 01:06:38;;;;;;;11.10;6.38;;;;;;;-2.31;100.00;96964.16;6108370;19;20646;-71
2024/02/26 01:08:39;;;;;;;11.30;6.13;;;;;;;-2.32;100.00;96957.13;6108653;19;20465;-71
2024/02/26 01:10:39;;;;;;;8.70;5.50;;;;;;;-2.35;100.00;96955.91;6107615;19;20040;-71
2024/02/26 01:12:40;;;;;;;12.63;5.95;;;;;;;-2.32;100.00;96959.84;6109055;19;20017;-71
2024/02/26 01:14:40;;;;;;;9.82;6.05;;;;;;;-2.32;100.00;96949.84;6109292;19;20017;-71
2024/02/26 01:16:40;;;;;;;10.07;5.63;;;;;;;-2.36;100.00;96953.53;6109983;19;20090;-71
2024/02/26 01:18:41;;;;;;;10.90;5.47;;;;;;;-2.41;100.00;96945.59;6106855;19;20006;-71
2024/02/26 01:20:41;;;;;;;7.90;5.05;;;;;;;-2.47;100.00;96947.72;6107911;19;20030;-71
2024/02/26 01:22:43;;;;;;;12.10;5.20;;;;;;;-2.48;100.00;96945.31;6108830;19;20363;-70
2024/02/26 01:24:43;;;;;;;9.35;5.65;;;;;;;-2.47;100.00;96947.72;6109312;19;20042;-71
2024/02/26 01:26:43;;;;;;;10.18;6.18;;;;;;;-2.45;100.00;96955.50;6108550;19;20364;-70
2024/02/26 01:28:44;;;;;;;10.50;5.63;;;;;;;-2.46;100.00;96946.59;6108584;19;20078;-70
2024/02/26 01:30:44;;;;;;;13.13;5.80;;;;;;;-2.43;100.00;96951.34;6107398;19;20360;-70
2024/02/26 01:32:44;;;;;;;8.30;5.50;;;;;;;-2.40;100.00;96950.69;6108194;19;20018;-71
2024/02/26 01:34:45;;;;;;;12.15;6.40;;;;;;;-2.44;100.00;96948.97;6108640;19;20010;-71
2024/02/26 01:36:45;;;;;;;9.90;5.38;;;;;;;-2.39;100.00;96954.19;6109488;19;20373;-71
2024/02/26 01:38:45;;;;;;;9.02;5.53;;;;;;;-2.34;100.00;96943.13;6108520;19;20059;-71
2024/02/26 01:40:46;;;;;;;13.15;5.80;;;;;;;-2.31;100.00;96956.03;6103882;19;20002;-71
2024/02/26 01:42:46;;;;;;;9.65;5.55;;;;;;;-2.30;100.00;96946.78;6108945;19;19999;-71
2024/02/26 01:44:46;;;;;;;10.48;5.93;;;;;;;-2.24;100.00;96944.66;6109167;19;20074;-71
2024/02/26 01:46:48;;;;;;;9.57;6.35;;;;;;;-2.26;100.00;96943.06;6109188;19;20082;-71
2024/02/26 01:48:49;;;;;;;10.45;5.25;;;;;;;-2.29;100.00;96943.75;6108415;19;20006;-71
2024/02/26 01:50:50;;;;;;;9.32;5.90;;;;;;;-2.36;100.00;96939.97;6107464;19;20006;-71
2024/02/26 01:52:52;;;;;;;8.65;5.38;;;;;;;-2.41;100.00;96942.88;6108210;19;20044;-71
2024/02/26 01:54:53;;;;;;;10.07;5.65;;;;;;;-2.45;100.00;96950.09;6108345;19;20014;-71
2024/02/26 01:56:54;;;;;;;9.50;5.43;;;;;;;-2.39;100.00;96952.28;6107805;19;20331;-71
2024/02/26 01:58:54;;;;;;;8.82;5.18;;;;;;;-2.35;100.00;96950.47;6108478;19;20041;-71
2024/02/26 02:00:54;;;;;;;10.75;6.40;;;;;;;-2.39;100.00;96946.06;6106092;19;20026;-71
2024/02/26 02:02:55;;;;;;;9.88;6.55;;;;;;;-2.41;100.00;96949.09;6106528;19;20034;-71
2024/02/26 02:04:56;;;;;;;11.65;7.72;;;;;;;-2.41;100.00;96951.78;6108271;19;20002;-71
2024/02/26 02:06:58;;;;;;;11.57;7.05;;;;;;;-2.34;100.00;96952.06;6108340;19;20002;-71
2024/02/26 02:09:00;;;;;;;11.27;6.75;;;;;;;-2.30;100.00;96950.28;6107430;19;20006;-71
2024/02/26 02:11:00;;;;;;;12.98;6.78;;;;;;;-2.22;100.00;96945.13;6106576;19;19994;-71
2024/02/26 02:13:01;;;;;;;11.25;6.10;;;;;;;-2.19;100.00;96944.47;6108144;19;20514;-71
2024/02/26 02:15:01;;;;;;;12.52;6.72;;;;;;;-2.20;100.00;96956.41;6107293;19;20003;-71
2024/02/26 02:17:02;;;;;;;7.50;5.68;;;;;;;-2.24;100.00;96953.56;6108206;19;20066;-71
2024/02/26 02:19:02;;;;;;;11.70;5.82;;;;;;;-2.28;100.00;96947.25;6106918;19;20066;-71
2024/02/26 02:21:03;;;;;;;9.38;5.15;;;;;;;-2.30;100.00;96953.00;6107174;19;20011;-71
2024/02/26 02:23:04;;;;;;;9.52;5.85;;;;;;;-2.34;100.00;96943.94;6113602;19;19999;-70
2024/02/26 02:25:05;;;;;;;8.40;5.32;;;;;;;-2.33;100.00;96942.81;6112628;19;20036;-70
2024/02/26 02:27:05;;;;;;;7.50;5.05;;;;;;;-2.31;100.00;96945.22;6113430;19;20335;-70
2024/02/26 02:29:07;;;;;;;8.10;5.45;;;;;;;-2.36;100.00;96934.56;6112778;19;20006;-70
2024/02/26 02:31:07;;;;;;;8.70;5.13;;;;;;;-2.35;100.00;96942.34;6111848;19;20022;-70
2024/02/26 02:33:08;;;;;;;8.70;5.90;;;;;;;-2.36;100.00;96942.69;6112843;19;20443;-70
2024/02/26 02:35:08;;;;;;;10.32;5.57;;;;;;;-2.38;100.00;96940.31;6113196;19;20082;-70
2024/02/26 02:37:08;;;;;;;9.98;5.45;;;;;;;-2.47;100.00;96938.81;6111786;19;20559;-70
2024/02/26 02:39:09;;;;;;;7.85;5.50;;;;;;;-2.51;100.00;96943.28;6112932;19;20007;-70
2024/02/26 02:41:09;;;;;;;8.15;4.72;;;;;;;-2.51;100.00;96935.94;6111361;19;20006;-70
2024/02/26 02:43:09;;;;;;;9.02;5.80;;;;;;;-2.50;100.00;96944.84;6112367;19;20517;-70
2024/02/26 02:45:10;;;;;;;7.63;5.05;;;;;;;-2.49;100.00;96943.72;6112864;19;20003;-70
2024/02/26 02:47:10;;;;;;;5.85;4.50;;;;;;;-2.51;100.00;96944.06;6112679;19;20034;-70
2024/02/26 02:49:10;;;;;;;8.23;4.70;;;;;;;-2.55;100.00;96954.78;6111870;19;20027;-71
2024/02/26 02:51:11;;;;;;;8.07;5.40;;;;;;;-2.56;100.00;96947.00;6109656;19;20010;-71
2024/02/26 02:53:11;;;;;;;8.32;4.95;;;;;;;-2.54;100.00;96952.88;6112285;19;20007;-70
2024/02/26 02:55:12;;;;;;;9.07;5.47;;;;;;;-2.53;100.00;96951.75;6113160;19;20019;-70
2024/02/26 02:57:12;;;;;;;8.75;5.32;;;;;;;-2.49;100.00;96963.47;6113399;19;20025;-70
2024/02/26 02:59:13;;;;;;;8.27;4.90;;;;;;;-2.51;100.00;96956.81;6112813;19;20003;-70
2024/02/26 03:01:13;;;;;;;9.60;4.97;;;;;;;-2.52;100.00;96963.34;6111991;19;20013;-70
2024/02/26 03:03:14;;;;;;;10.23;5.80;;;;;;;-2.57;100.00;96962.41;6112397;19;20103;-70
2024/02/26 03:05:14;;;;;;;9.10;5.70;;;;;;;-2.64;100.00;96955.97;6112769;19;20010;-71
2024/02/26 03:07:14;;;;;;;7.55;5.18;;;;;;;-2.63;100.00;96963.75;6112883;19;20002;-71
2024/02/26 03:09:15;;;;;;;7.90;5.03;;;;;;;-2.65;100.00;96970.59;6112115;19;20006;-71
2024/02/26 03:11:15;;;;;;;11.13;6.50;;;;;;;-2.68;100.00;96968.56;6109680;19;19999;-71
2024/02/26 03:13:16;;;;;;;11.95;5.45;;;;;;;-2.71;100.00;96964.59;6111757;19;20020;-71
2024/02/26 03:15:16;;;;;;;8.73;5.20;;;;;;;-2.70;100.00;96978.94;6101036;19;19998;-71
2024/02/26 03:17:16;;;;;;;10.52;5.32;;;;;;;-2.69;100.00;96975.09;6111478;19;20567;-71
2024/02/26 03:19:17;;;;;;;10.43;6.40;;;;;;;-2.69;100.00;96970.47;6111152;19;20328;-71
2024/02/26 03:21:18;;;;;;;13.30;5.47;;;;;;;-2.74;100.00;96967.94;6110327;19;20019;-71
2024/02/26 03:23:18;;;;;;;9.15;6.22;;;;;;;-2.79;100.00;96962.75;6110611;19;20899;-71
2024/02/26 03:25:18;;;;;;;10.10;5.30;;;;;;;-2.80;100.00;96968.50;6111115;19;20826;-71
2024/02/26 03:27:19;;;;;;;9.13;5.43;;;;;;;-2.84;100.00;96968.34;6111627;19;20013;-71
2024/02/26 03:29:19;;;;;;;8.60;5.28;;;;;;;-2.83;100.00;96973.41;6110294;19;20011;-72
2024/02/26 03:31:21;;;;;;;9.65;5.50;;;;;;;-2.85;100.00;96964.84;6109808;19;20009;-71
2024/02/26 03:33:21;;;;;;;8.73;5.53;;;;;;;-2.80;100.00;96968.50;6109667;19;20535;-71
2024/02/26 03:35:22;;;;;;;10.85;6.10;;;;;;;-2.72;100.00;96964.94;6110237;19;20320;-71
2024/02/26 03:37:22;;;;;;;10.40;4.78;;;;;;;-2.69;100.00;96967.78;6110535;19;20014;-71
2024/02/26 03:39:22;;;;;;;8.52;5.72;;;;;;;-2.62;100.00;96969.97;6109658;19;20459;-71
2024/02/26 03:41:23;;;;;;;8.52;5.50;;;;;;;-2.58;100.00;96966.25;6108079;19;20090;-71
2024/02/26 03:43:23;;;;;;;9.88;5.38;;;;;;;-2.58;100.00;96971.66;6110232;19;20006;-71
2024/02/26 03:45:25;;;;;;;13.27;5.45;;;;;;;-2.56;100.00;96966.75;6110426;19;20246;-71
2024/02/26 03:47:26;;;;;;;7.18;5.47;;;;;;;-2.55;100.00;96964.81;6110288;19;20014;-71
2024/02/26 03:49:26;;;;;;;7.05;5.03;;;;;;;-2.52;100.00;96976.91;6108345;19;20016;-71
2024/02/26 03:51:31;;;;;;;7.80;4.97;;;;;;;-2.52;100.00;96963.34;6109505;19;20010;-71
2024/02/26 03:53:31;;;;;;;7.85;4.88;;;;;;;-2.53;100.00;96968.00;6110458;19;20002;-71
2024/02/26 03:55:31;;;;;;;13.88;5.38;;;;;;;-2.51;100.00;96973.06;6110806;19;20343;-71
2024/02/26 03:57:32;;;;;;;15.95;6.47;;;;;;;-2.49;100.00;96966.19;6110969;19;20041;-71
2024/02/26 03:59:32;;;;;;;14.30;7.85;;;;;;;-2.43;100.00;96964.09;6109049;19;20025;-71
2024/02/26 04:01:32;;;;;;;9.15;5.30;;;;;;;-2.42;100.00;96966.47;6108996;19;20009;-71
2024/02/26 04:03:33;;;;;;;9.68;5.55;;;;;;;-2.45;100.00;96956.28;6110071;19;20014;-71
2024/02/26 04:05:33;;;;;;;7.57;4.45;;;;;;;-2.50;100.00;96961.09;6109789;19;20323;-71
2024/02/26 04:07:33;;;;;;;7.80;4.68;;;;;;;-2.52;100.00;96963.34;6109775;19;20002;-71
2024/02/26 04:09:34;;;;;;;11.07;5.60;;;;;;;-2.49;100.00;96970.81;6108425;19;20010;-71
2024/02/26 04:11:34;;;;;;;13.90;5.03;;;;;;;-2.56;100.00;96965.94;6110064;19;20074;-71
2024/02/26 04:13:34;;;;;;;7.68;4.75;;;;;;;-2.53;100.00;96959.06;6110900;19;20023;-71
2024/02/26 04:15:35;;;;;;;7.50;4.68;;;;;;;-2.55;100.00;96964.81;6103255;19;20025;-70
2024/02/26 04:17:36;;;;;;;9.45;4.35;;;;;;;-2.55;100.00;96956.69;6103740;19;20025;-70
2024/02/26 04:19:36;;;;;;;7.40;4.88;;;;;;;-2.55;100.00;96948.56;6099786;19;20003;-70
2024/02/26 04:21:37;;;;;;;10.10;5.63;;;;;;;-2.59;100.00;96958.47;6103909;19;20038;-71
2024/02/26 04:23:37;;;;;;;9.43;4.45;;;;;;;-2.56;100.00;96955.91;6102983;19;20415;-71
2024/02/26 04:25:38;;;;;;;7.70;5.22;;;;;;;-2.55;100.00;96956.69;6103365;19;20003;-71
2024/02/26 04:27:38;;;;;;;8.15;4.97;;;;;;;-2.48;100.00;96961.56;6103515;19;20471;-71
2024/02/26 04:29:38;;;;;;;18.23;7.80;;;;;;;-2.50;100.00;96961.91;6102208;19;21235;-71
2024/02/26 04:31:39;;;;;;;12.73;6.40;;;;;;;-2.55;100.00;96962.13;6103044;19;20106;-71
2024/02/26 04:33:41;;;;;;;13.60;7.53;;;;;;;-2.61;100.00;96956.09;6101900;19;20003;-71
2024/02/26 04:35:42;;;;;;;14.23;5.97;;;;;;;-2.64;100.00;96954.06;6103304;19;20007;-71
2024/02/26 04:37:42;;;;;;;12.88;7.35;;;;;;;-2.61;100.00;96966.91;6102277;19;20703;-71
2024/02/26 04:39:43;;;;;;;13.05;7.10;;;;;;;-2.61;100.00;96966.13;6101926;19;20007;-71
2024/02/26 04:41:43;;;;;;;13.70;6.75;;;;;;;-2.53;100.00;96973.41;6102591;19;20180;-71
2024/02/26 04:43:43;;;;;;;14.32;6.80;;;;;;;-2.49;100.00;96971.59;6101405;19;20022;-71
2024/02/26 04:45:44;;;;;;;11.30;5.82;;;;;;;-2.47;100.00;96974.00;6102557;19;20078;-71
2024/02/26 04:47:44;;;;;;;10.70;5.80;;;;;;;-2.46;100.00;96967.47;6102174;19;20026;-71
2024/02/26 04:49:45;;;;;;;10.95;5.55;;;;;;;-2.53;100.00;96957.16;6102091;19;20014;-71
2024/02/26 04:51:45;;;;;;;14.70;7.13;;;;;;;-2.53;100.00;96962.56;6102949;19;20451;-71
2024/02/26 04:53:45;;;;;;;11.45;6.28;;;;;;;-2.55;100.00;96960.19;6101503;19;20008;-71
2024/02/26 04:55:45;;;;;;;12.52;6.63;;;;;;;-2.51;100.00;96964.94;6103282;19;20899;-71
2024/02/26 04:57:46;;;;;;;11.60;6.30;;;;;;;-2.51;100.00;96971.16;6102666;19;20459;-71
2024/02/26 04:59:46;;;;;;;14.00;7.18;;;;;;;-2.50;100.00;96970.03;6099458;19;20019;-71
2024/02/26 05:01:47;;;;;;;15.27;6.35;;;;;;;-2.51;100.00;96965.72;6102645;19;20010;-71
2024/02/26 05:03:48;;;;;;;10.73;6.20;;;;;;;-2.55;100.00;96983.78;6102877;19;20478;-71
2024/02/26 05:05:49;;;;;;;9.05;6.03;;;;;;;-2.54;100.00;96974.53;6102171;19;20002;-71
2024/02/26 05:07:49;;;;;;;12.32;5.50;;;;;;;-2.53;100.00;96972.63;6102520;19;20126;-71
2024/02/26 05:09:50;;;;;;;9.13;5.78;;;;;;;-2.50;100.00;96980.84;6102175;19;20006;-71
2024/02/26 05:11:50;;;;;;;9.45;5.60;;;;;;;-2.45;100.00;96977.97;6101746;19;20462;-71
2024/02/26 05:13:50;;;;;;;9.48;5.60;;;;;;;-2.44;100.00;96978.75;6099876;19;20086;-71
2024/02/26 05:15:52;;;;;;;10.05;5.70;;;;;;;-2.42;100.00;96979.22;6109794;19;20010;-71
2024/02/26 05:17:52;;;;;;;10.52;5.90;;;;;;;-2.41;100.00;96978.09;6107978;19;20263;-71
2024/02/26 05:19:53;;;;;;;8.75;6.07;;;;;;;-2.42;100.00;96965.66;6108249;19;20002;-71
2024/02/26 05:21:53;;;;;;;12.35;7.68;;;;;;;-2.43;100.00;96975.72;6108810;19;20006;-71
2024/02/26 05:23:53;;;;;;;14.10;7.57;;;;;;;-2.42;100.00;96973.78;6108848;19;20335;-71
2024/02/26 05:25:54;;;;;;;9.52;6.10;;;;;;;-2.41;100.00;96976.16;6109370;19;20023;-71
2024/02/26 05:27:54;;;;;;;11.52;5.70;;;;;;;-2.43;100.00;96985.75;6108361;19;19998;-71
2024/02/26 05:29:55;;;;;;;9.15;5.20;;;;;;;-2.47;100.00;96985.63;6108264;19;20104;-71
2024/02/26 05:31:55;;;;;;;9.95;5.60;;;;;;;-2.49;100.00;96981.66;6107824;19;20010;-71
2024/02/26 05:33:55;;;;;;;7.43;4.95;;;;;;;-2.51;100.00;96986.59;6108327;19;19998;-71
2024/02/26 05:35:56;;;;;;;7.78;5.07;;;;;;;-2.51;100.00;96981.97;6109043;19;20006;-71
2024/02/26 05:37:56;;;;;;;12.05;6.35;;;;;;;-2.53;100.00;96984.25;6108635;19;20002;-71
2024/02/26 05:39:57;;;;;;;12.15;6.75;;;;;;;-2.49;100.00;96981.66;6107196;19;20405;-71
2024/02/26 05:41:57;;;;;;;10.23;5.40;;;;;;;-2.49;100.00;96979.72;6108069;19;20401;-71
2024/02/26 05:43:58;;;;;;;8.70;5.68;;;;;;;-2.48;100.00;96972.41;6109378;19;20023;-71
2024/02/26 05:45:58;;;;;;;10.48;5.25;;;;;;;-2.45;100.00;96975.25;6107426;19;20010;-71
2024/02/26 05:47:58;;;;;;;8.60;5.47;;;;;;;-2.42;100.00;96977.28;6107656;19;20006;-71
2024/02/26 05:50:00;;;;;;;8.45;5.25;;;;;;;-2.35;100.00;96974.06;6107981;19;20106;-71
2024/02/26 05:52:01;;;;;;;9.45;5.68;;;;;;;-2.30;100.00;96976.59;6108007;19;20334;-71
2024/02/26 05:54:01;;;;;;;14.57;5.97;;;;;;;-2.26;100.00;96982.91;6107079;19;20006;-71
2024/02/26 05:56:01;;;;;;;11.10;6.22;;;;;;;-2.26;100.00;96989.13;6108926;19;20515;-71
2024/02/26 05:58:02;;;;;;;9.75;5.95;;;;;;;-2.22;100.00;96983.84;6108180;19;20327;-71
2024/02/26 06:00:05;;;;;;;11.85;6.55;;;;;;;-2.22;100.00;96985.78;6107089;19;20005;-71
2024/02/26 06:02:06;;;;;;;10.43;6.00;;;;;;;-2.24;100.00;96983.38;6106999;19;20013;-71
2024/02/26 06:04:06;;;;;;;12.90;6.30;;;;;;;-2.22;100.00;96991.19;6108209;19;20006;-71
2024/02/26 06:06:07;;;;;;;9.10;5.43;;;;;;;-2.22;100.00;96991.19;6108171;19;20006;-71
2024/02/26 06:08:07;;;;;;;16.50;8.10;;;;;;;-2.26;100.00;96994.53;6107519;19;20002;-71
2024/02/26 06:10:07;;;;;;;9.50;6.18;;;;;;;-2.26;100.00;96996.47;6106259;19;20003;-71
2024/02/26 06:12:08;;;;;;;8.07;5.10;;;;;;;-2.26;100.00;96994.53;6107009;19;20226;-71
2024/02/26 06:14:09;;;;;;;10.90;4.25;;;;;;;-2.26;100.00;97002.66;6107477;19;20010;-71
2024/02/26 06:16:10;;;;;;;9.02;4.68;;;;;;;-2.30;100.00;97003.69;6107004;19;20021;-71
2024/02/26 06:18:10;;;;;;;9.60;5.63;;;;;;;-2.32;100.00;97024.88;6108003;19;20242;-71
2024/02/26 06:20:12;;;;;;;9.48;5.45;;;;;;;-2.33;100.00;97020.56;6106836;19;20030;-71
2024/02/26 06:22:13;;;;;;;7.85;5.22;;;;;;;-2.34;100.00;97029.81;6107356;19;20007;-71
2024/02/26 06:24:13;;;;;;;8.60;5.03;;;;;;;-2.33;100.00;97026.00;6107894;19;20380;-71
2024/02/26 06:26:13;;;;;;;7.57;4.75;;;;;;;-2.31;100.00;97035.41;6107454;19;20498;-71
2024/02/26 06:28:14;;;;;;;6.55;4.82;;;;;;;-2.28;100.00;97039.34;6106601;19;20028;-71
2024/02/26 06:30:14;;;;;;;9.02;4.95;;;;;;;-2.24;100.00;97040.25;6106501;19;19999;-71
2024/02/26 06:32:14;;;;;;;11.57;5.18;;;;;;;-2.22;100.00;97043.47;6107223;19;20329;-71
2024/02/26 06:34:15;;;;;;;7.18;5.18;;;;;;;-2.18;100.00;97030.03;6107397;19;20495;-71
2024/02/26 06:36:16;;;;;;;7.25;4.93;;;;;;;-2.13;100.00;97033.34;6106036;19;19999;-71
2024/02/26 06:38:17;;;;;;;7.05;4.85;;;;;;;-2.09;100.00;97036.97;6108368;19;20033;-70
2024/02/26 06:40:17;;;;;;;8.82;4.70;;;;;;;-2.02;100.00;97036.44;6105687;19;20719;-71
2024/02/26 06:42:18;;;;;;;7.28;4.80;;;;;;;-1.93;100.00;97036.38;6105279;19;20034;-71
2024/02/26 06:44:18;;;;;;;8.77;4.75;;;;;;;-1.85;100.00;97046.34;6104554;19;19999;-71
2024/02/26 06:46:18;;;;;;;15.90;5.35;;;;;;;-1.78;100.00;97052.03;6104920;19;20006;-71
2024/02/26 06:48:19;;;;;;;8.32;4.28;;;;;;;-1.73;100.00;97044.50;6105515;19;20003;-71
2024/02/26 06:50:19;;;;;;;11.07;4.72;;;;;;;-1.71;100.00;97050.38;6104116;19;20066;-71
2024/02/26 06:52:19;;;;;;;8.23;5.05;;;;;;;-1.67;100.00;97047.00;6103786;19;19995;-71
2024/02/26 06:54:20;;;;;;;11.45;5.80;;;;;;;-1.63;100.00;97053.34;6104918;19;20003;-71
2024/02/26 06:56:20;;;;;;;11.88;5.45;;;;;;;-1.63;100.00;97051.44;6104399;19;20156;-71
2024/02/26 06:58:20;;;;;;;8.80;5.93;;;;;;;-1.62;100.00;97049.50;6106447;19;20023;-71
2024/02/26 07:00:21;;;;;;;8.68;6.03;;;;;;;-1.60;100.00;97047.25;6105491;19;20066;-71
2024/02/26 07:02:21;;;;;;;11.02;5.28;;;;;;;-1.57;100.00;97055.53;6106468;19;20530;-71
2024/02/26 07:04:21;;;;;;;13.50;5.93;;;;;;;-1.52;100.00;97052.59;6106627;19;20463;-71
2024/02/26 07:06:22;;;;;;;9.05;6.05;;;;;;;-1.50;100.00;97063.09;6106840;19;20018;-71
2024/02/26 07:08:22;;;;;;;19.27;7.25;;;;;;;-1.45;100.00;97060.19;6112139;19;20032;-71
2024/02/26 07:10:22;;;;;;;18.30;9.20;;;;;;;-1.40;100.00;97070.06;6111692;19;20002;-71
2024/02/26 07:12:23;;;;;;;23.73;10.25;;;;;;;-1.40;100.00;97065.41;6112163;19;19999;-71
2024/02/26 07:14:24;;;;;;;22.98;9.95;;;;;;;-1.36;100.00;97071.75;6111595;19;20321;-71
2024/02/26 07:16:24;;;;;;;13.98;7.20;;;;;;;-1.31;100.00;97074.25;6112230;19;20503;-71
2024/02/26 07:18:25;;;;;;;8.73;6.03;;;;;;;-1.28;100.00;97073.59;6112486;19;20220;-71
2024/02/26 07:20:25;;;;;;;13.15;6.70;;;;;;;-1.26;100.00;97084.88;6111163;19;20040;-71
2024/02/26 07:22:25;;;;;;;10.43;6.25;;;;;;;-1.22;100.00;97082.31;6111281;19;20026;-71
2024/02/26 07:24:29;;;;;;;10.73;6.38;;;;;;;-1.19;100.00;97079.72;6111141;19;20491;-71
2024/02/26 07:26:30;;;;;;;9.75;5.72;;;;;;;-1.14;100.00;97087.66;6112092;19;20011;-71
2024/02/26 07:28:31;;;;;;;11.77;7.90;;;;;;;-1.11;100.00;97085.38;6111083;19;20002;-71
2024/02/26 07:30:31;;;;;;;10.85;6.07;;;;;;;-1.14;100.00;97084.16;6110203;19;20251;-71
2024/02/26 07:32:31;;;;;;;7.82;5.65;;;;;;;-1.14;100.00;97082.22;6111609;19;20271;-71
2024/02/26 07:34:32;;;;;;;8.38;5.00;;;;;;;-1.13;100.00;97089.25;6111082;19;20577;-71
2024/02/26 07:36:32;;;;;;;6.93;5.05;;;;;;;-1.14;100.00;97082.22;6111733;19;20027;-71
2024/02/26 07:38:32;;;;;;;10.70;5.65;;;;;;;-1.16;100.00;97086.38;6111800;19;20006;-71
2024/02/26 07:40:33;;;;;;;8.77;5.20;;;;;;;-1.08;100.00;97076.56;6108329;19;20021;-71
2024/02/26 07:42:33;;;;;;;12.10;6.35;;;;;;;-1.05;100.00;97081.34;6111620;19;20011;-71
2024/02/26 07:44:33;;;;;;;13.55;5.72;;;;;;;-1.02;100.00;97073.31;6111168;19;20090;-71
2024/02/26 07:46:34;;;;;;;13.20;6.45;;;;;;;-0.98;100.00;97076.94;6112029;19;20007;-70
2024/02/26 07:48:34;;;;;;;9.85;6.10;;;;;;;-0.94;100.00;97074.34;6111501;19;20361;-70
2024/02/26 07:50:35;;;;;;;12.70;7.78;;;;;;;-0.90;100.00;97075.25;6109079;19;20043;-71
2024/02/26 07:52:35;;;;;;;12.98;8.20;;;;;;;-0.79;100.00;97089.97;6111036;19;20002;-71
2024/02/26 07:54:35;;;;;;;16.23;9.68;;;;;;;-0.77;100.00;97090.44;6111770;19;20023;-71
2024/02/26 07:56:36;;;;;;;16.63;9.43;;;;;;;-0.74;100.00;97087.06;6110471;19;20007;-71
2024/02/26 07:58:36;;;;;;;13.73;8.73;;;;;;;-0.72;100.00;97090.22;6111003;19;20014;-71
2024/02/26 08:00:37;;;;;;;28.55;15.48;;;;;;;-0.69;100.00;97089.53;6108054;19;20464;-71
2024/02/26 08:02:37;;;;;;;47.65;23.88;;;;;;;-0.65;100.00;97097.81;6110281;19;20030;-71
2024/02/26 08:04:37;;;;;;;63.03;26.63;;;;;;;-0.59;100.00;97088.28;6111091;19;20044;-71
2024/02/26 08:06:38;;;;;;;49.15;23.77;;;;;;;-0.57;100.00;97084.13;6111693;19;20018;-71
2024/02/26 08:08:38;;;;;;;25.42;13.65;;;;;;;-0.51;100.00;97092.81;6110204;19;20507;-71
2024/02/26 08:10:38;;;;;;;19.25;10.65;;;;;;;-0.46;100.00;97092.59;6109506;19;20455;-71
2024/02/26 08:12:39;;;;;;;18.08;10.68;;;;;;;-0.40;100.00;97096.69;6110208;19;20582;-71
2024/02/26 08:14:39;;;;;;;17.13;8.82;;;;;;;-0.36;100.00;97100.31;6101506;19;20006;-71
2024/02/26 08:16:40;;;;;;;14.63;8.10;;;;;;;-0.32;100.00;97095.78;6110483;19;20007;-71
2024/02/26 08:18:40;;;;;;;12.68;8.00;;;;;;;-0.22;100.00;97104.59;6108103;19;20320;-71
2024/02/26 08:20:40;;;;;;;14.15;8.00;;;;;;;-0.15;100.00;97099.41;6108597;19;20003;-71
2024/02/26 08:22:41;;;;;;;19.10;10.45;;;;;;;-0.08;100.00;97099.63;6110037;19;20403;-71
2024/02/26 08:24:42;;;;;;;18.92;10.15;;;;;;;-0.03;100.00;97100.16;6110189;19;20011;-71
2024/02/26 08:26:42;;;;;;;15.35;8.43;;;;;;;0.04;100.00;97096.88;6109536;19;20010;-71
2024/02/26 08:28:44;;;;;;;37.85;17.35;;;;;;;0.14;100.00;97101.81;6109829;19;20554;-71
2024/02/26 08:30:44;;;;;;;43.20;19.55;;;;;;;0.22;100.00;97100.13;6108424;19;20371;-71
2024/02/26 08:32:46;;;;;;;43.67;18.60;;;;;;;0.24;100.00;97100.56;6110495;19;20011;-71
2024/02/26 08:34:46;;;;;;;34.58;15.50;;;;;;;0.30;100.00;97103.84;6108856;19;20384;-70
2024/02/26 08:36:48;;;;;;;23.45;12.52;;;;;;;0.34;100.00;97102.81;6110368;19;20058;-70
2024/02/26 08:38:49;;;;;;;20.90;10.18;;;;;;;0.38;100.00;97103.69;6110065;19;20362;-70
2024/02/26 08:40:49;;;;;;;16.10;9.15;;;;;;;0.41;100.00;97108.44;6108419;19;20032;-71
2024/02/26 08:42:49;;;;;;;16.70;9.00;;;;;;;0.45;100.00;97101.19;6109787;19;20006;-71
2024/02/26 08:44:50;;;;;;;14.20;8.35;;;;;;;0.51;100.00;97112.63;6109551;19;20003;-71
2024/02/26 08:46:50;;;;;;;15.00;8.98;;;;;;;0.53;100.00;97104.91;6110866;19;20011;-70
2024/02/26 08:48:51;;;;;;;17.98;8.70;;;;;;;0.59;100.00;97105.47;6109509;19;20034;-70
2024/02/26 08:50:51;;;;;;;13.73;7.43;;;;;;;0.64;100.00;97108.72;6107925;19;20613;-70
2024/02/26 08:52:53;;;;;;;12.15;7.93;;;;;;;0.68;100.00;97108.81;6109817;19;20411;-71
2024/02/26 08:54:53;;;;;;;11.70;7.35;;;;;;;0.74;100.00;97115.59;6108845;19;20034;-71
2024/02/26 08:56:53;;;;;;;13.25;8.10;;;;;;;0.78;100.00;97121.94;6109290;19;20455;-71
2024/02/26 08:58:56;;;;;;;14.13;8.23;;;;;;;0.83;100.00;97118.97;6109618;19;20014;-71
2024/02/26 09:00:57;;;;;;;14.10;8.40;;;;;;;0.86;100.00;97115.53;6108012;19;20070;-71
2024/02/26 09:02:57;;;;;;;14.20;8.63;;;;;;;0.90;100.00;97130.03;6109127;19;20030;-71
2024/02/26 09:04:57;;;;;;;11.75;7.45;;;;;;;0.92;100.00;97127.00;6108696;19;20062;-71
2024/02/26 09:06:58;;;;;;;13.18;7.47;;;;;;;0.94;100.00;97124.69;6109306;19;20510;-71
2024/02/26 09:08:58;;;;;;;14.23;8.38;;;;;;;0.97;100.00;97127.50;6109432;19;20026;-71
2024/02/26 09:10:58;;;;;;;14.95;8.25;;;;;;;0.99;100.00;97124.44;6107594;19;20003;-71
2024/02/26 09:12:59;;;;;;;15.48;7.85;;;;;;;1.01;100.00;97124.91;6108389;19;20070;-71
2024/02/26 09:14:59;;;;;;;13.15;7.65;;;;;;;1.05;100.00;97123.84;6104524;19;20079;-71
2024/02/26 09:16:59;;;;;;;13.48;7.85;;;;;;;1.04;100.00;97118.75;6102083;19;20006;-71